Time;durP1;ratioP1;P1;durP2;ratioP2;P2;SDS_P1;SDS_P2;PMS_P1;PMS_P2;Temp;Humidity;BMP_temperature;BMP_pressure;BME280_temperature;BME280_humidity;BME280_pressure;Samples;Min_cycle;Max_cycle;Signal;HPM_P1;HPM_P2
2022/04/24 00:00:08;;;;;;;0.40;0.40;;;8.30;99.90;;;;;;4975674;28;20082;-72
2022/04/24 00:02:33;;;;;;;0.43;0.43;;;8.30;99.90;;;;;;4969751;28;20046;-73
2022/04/24 00:04:59;;;;;;;0.60;0.60;;;8.40;99.90;;;;;;4959543;28;20048;-71
2022/04/24 00:07:25;;;;;;;0.50;0.50;;;8.40;99.90;;;;;;4963484;28;20070;-70
2022/04/24 00:09:51;;;;;;;0.60;0.60;;;8.20;99.90;;;;;;4957961;28;20126;-72
2022/04/24 00:12:18;;;;;;;0.52;0.52;;;8.20;99.90;;;;;;4955568;28;20130;-71
2022/04/24 00:14:44;;;;;;;0.50;0.50;;;8.20;99.90;;;;;;4952949;28;20046;-72
2022/04/24 00:17:10;;;;;;;0.70;0.70;;;8.20;99.90;;;;;;4968658;28;20078;-71
2022/04/24 00:19:36;;;;;;;0.50;0.50;;;8.10;99.90;;;;;;4969414;28;20108;-70
2022/04/24 00:22:02;;;;;;;0.45;0.45;;;8.00;99.90;;;;;;4954710;28;20050;-73
2022/04/24 00:24:28;;;;;;;0.52;0.52;;;8.00;99.90;;;;;;4958250;28;20050;-72
2022/04/24 00:26:54;;;;;;;0.40;0.40;;;7.90;99.90;;;;;;4967857;28;20070;-73
2022/04/24 00:29:21;;;;;;;0.50;0.50;;;7.80;99.90;;;;;;4968804;28;20058;-72
2022/04/24 00:31:47;;;;;;;0.40;0.40;;;7.80;99.90;;;;;;4969174;28;20406;-73
2022/04/24 00:34:12;;;;;;;0.50;0.50;;;7.70;99.90;;;;;;4955546;28;20154;-73
2022/04/24 00:36:38;;;;;;;0.50;0.50;;;7.70;99.90;;;;;;4964118;28;20138;-73
2022/04/24 00:39:04;;;;;;;;;;;7.60;99.90;;;;;;4962439;28;20464;-74
2022/04/24 00:41:30;;;;;;;0.73;0.73;;;7.60;99.90;;;;;;4967800;28;20012;-73
2022/04/24 00:43:56;;;;;;;0.60;0.60;;;7.60;99.90;;;;;;4967810;28;20039;-71
2022/04/24 00:47:01;;;;;;;0.40;0.40;;;7.50;99.90;;;;;;4951332;28;20050;-71
2022/04/24 00:49:28;;;;;;;0.77;0.77;;;7.40;99.90;;;;;;4962437;28;20395;-73
2022/04/24 00:51:55;;;;;;;0.40;0.40;;;7.40;99.90;;;;;;4972347;28;20516;-71
2022/04/24 00:54:21;;;;;;;0.50;0.50;;;7.30;99.90;;;;;;4950450;28;20051;-71
2022/04/24 00:56:47;;;;;;;0.50;0.50;;;7.30;99.90;;;;;;4960819;28;20096;-72
2022/04/24 00:59:14;;;;;;;0.40;0.40;;;7.20;99.90;;;;;;4968614;28;20043;-73
2022/04/24 01:01:41;;;;;;;0.40;0.40;;;7.20;99.90;;;;;;4969213;28;20051;-72
2022/04/24 01:04:08;;;;;;;0.50;0.50;;;7.20;99.90;;;;;;4971487;28;20054;-73
2022/04/24 01:06:39;;;;;;;0.45;0.45;;;7.10;99.90;;;;;;4968530;28;20058;-72
2022/04/24 01:09:17;;;;;;;0.50;0.50;;;7.10;99.90;;;;;;4964183;28;20065;-70
2022/04/24 01:11:45;;;;;;;0.50;0.50;;;7.00;99.90;;;;;;4934950;29;20047;-71
2022/04/24 01:14:11;;;;;;;0.40;0.40;;;7.00;99.90;;;;;;4948578;28;20104;-70
2022/04/24 01:16:37;;;;;;;0.70;0.70;;;7.00;99.90;;;;;;4952605;28;20043;-73
2022/04/24 01:19:05;;;;;;;0.60;0.60;;;7.00;99.90;;;;;;4968059;28;20093;-72
2022/04/24 01:21:31;;;;;;;0.70;0.70;;;7.00;99.90;;;;;;4961033;28;20047;-73
2022/04/24 01:23:57;;;;;;;0.50;0.50;;;6.90;99.90;;;;;;4976575;28;20094;-73
2022/04/24 01:26:23;;;;;;;0.50;0.50;;;6.90;99.90;;;;;;4957617;28;20116;-72
2022/04/24 01:28:49;;;;;;;0.40;0.40;;;6.90;99.90;;;;;;4980951;28;20047;-72
2022/04/24 01:31:15;;;;;;;;;;;6.90;99.90;;;;;;4952331;28;20046;-73
2022/04/24 01:33:40;;;;;;;0.40;0.40;;;6.90;99.90;;;;;;4952124;28;19980;-72
2022/04/24 01:36:06;;;;;;;0.50;0.50;;;6.80;99.90;;;;;;4968035;28;20439;-72
2022/04/24 01:38:33;;;;;;;0.50;0.50;;;6.80;99.90;;;;;;4964591;28;20157;-71
2022/04/24 01:40:59;;;;;;;0.50;0.50;;;6.70;99.90;;;;;;4965742;28;20380;-72
2022/04/24 01:43:24;;;;;;;0.63;0.63;;;6.80;99.90;;;;;;4959208;28;20043;-73
2022/04/24 01:45:50;;;;;;;0.50;0.50;;;6.80;99.90;;;;;;4950669;28;20472;-72
2022/04/24 01:48:16;;;;;;;0.60;0.60;;;6.70;99.90;;;;;;4983721;28;20047;-72
2022/04/24 01:50:41;;;;;;;0.50;0.50;;;6.60;99.90;;;;;;4969627;28;20038;-72
2022/04/24 01:53:07;;;;;;;0.65;0.65;;;6.60;99.90;;;;;;4963607;28;20092;-71
2022/04/24 01:55:33;;;;;;;0.50;0.50;;;6.60;99.90;;;;;;4952959;28;20035;-71
2022/04/24 01:57:58;;;;;;;0.60;0.60;;;6.60;99.90;;;;;;4960762;28;20054;-73
2022/04/24 02:00:24;;;;;;;0.60;0.60;;;6.60;99.90;;;;;;4963940;28;20050;-72
2022/04/24 02:02:50;;;;;;;0.63;0.63;;;6.50;99.90;;;;;;4960116;28;20097;-73
2022/04/24 02:05:17;;;;;;;0.70;0.70;;;6.50;99.90;;;;;;4952154;28;20070;-72
2022/04/24 02:07:43;;;;;;;0.40;0.40;;;6.50;99.90;;;;;;4963904;28;20054;-71
2022/04/24 02:10:09;;;;;;;0.77;0.77;;;6.40;99.90;;;;;;4967642;28;20137;-72
2022/04/24 02:12:40;;;;;;;0.60;0.60;;;6.50;99.90;;;;;;4955487;28;20047;-74
2022/04/24 02:15:07;;;;;;;0.60;0.60;;;6.50;99.90;;;;;;4967409;28;20054;-72
2022/04/24 02:17:32;;;;;;;0.40;0.40;;;6.50;99.90;;;;;;4967799;28;20095;-73
2022/04/24 02:19:58;;;;;;;0.80;0.80;;;6.50;99.90;;;;;;4959419;28;20039;-74
2022/04/24 02:22:23;;;;;;;0.60;0.60;;;6.50;99.90;;;;;;4957490;28;20043;-74
2022/04/24 02:24:51;;;;;;;0.88;0.88;;;6.50;99.90;;;;;;4980889;28;20082;-73
2022/04/24 02:27:17;;;;;;;0.50;0.50;;;6.50;99.90;;;;;;4969521;28;20185;-74
2022/04/24 02:29:43;;;;;;;0.60;0.60;;;6.50;99.90;;;;;;4971073;28;20165;-73
2022/04/24 02:32:09;;;;;;;0.80;0.80;;;6.50;99.90;;;;;;4941929;28;20110;-75
2022/04/24 02:34:35;;;;;;;0.55;0.55;;;6.40;99.90;;;;;;4970563;28;20046;-74
2022/04/24 02:37:00;;;;;;;0.65;0.65;;;6.50;99.90;;;;;;4970944;28;20042;-75
2022/04/24 02:39:26;;;;;;;0.50;0.50;;;6.50;99.90;;;;;;4962645;28;20089;-71
2022/04/24 02:41:52;;;;;;;0.60;0.60;;;6.50;99.90;;;;;;4961388;28;20051;-71
2022/04/24 02:44:17;;;;;;;0.47;0.47;;;6.50;99.90;;;;;;4968261;28;20078;-73
2022/04/24 02:46:43;;;;;;;0.50;0.50;;;6.50;99.90;;;;;;4971037;28;20373;-75
2022/04/24 02:49:09;;;;;;;0.45;0.45;;;6.40;99.90;;;;;;4971554;28;20341;-71
2022/04/24 02:51:34;;;;;;;0.50;0.50;;;6.40;99.90;;;;;;4970245;28;20161;-75
2022/04/24 02:54:00;;;;;;;0.40;0.40;;;6.40;99.90;;;;;;4957410;28;20070;-71
2022/04/24 02:56:25;;;;;;;0.50;0.50;;;6.40;99.90;;;;;;4969135;28;20035;-72
2022/04/24 02:58:51;;;;;;;0.65;0.65;;;6.40;99.90;;;;;;4969882;28;20035;-72
2022/04/24 03:01:18;;;;;;;0.50;0.50;;;6.40;99.90;;;;;;4956803;28;20046;-72
2022/04/24 03:03:45;;;;;;;0.50;0.50;;;6.40;99.90;;;;;;4970526;28;20054;-72
2022/04/24 03:06:10;;;;;;;0.50;0.50;;;6.40;99.90;;;;;;4969477;28;20059;-73
2022/04/24 03:08:36;;;;;;;0.50;0.50;;;6.40;99.90;;;;;;4970624;28;20055;-70
2022/04/24 03:11:02;;;;;;;;;;;6.40;99.90;;;;;;4968695;28;20415;-72
2022/04/24 03:13:28;;;;;;;0.40;0.40;;;6.40;99.90;;;;;;4959458;28;20021;-74
2022/04/24 03:15:53;;;;;;;0.57;0.57;;;6.40;99.90;;;;;;5010194;28;20031;-71
2022/04/24 03:18:19;;;;;;;0.50;0.50;;;6.40;99.90;;;;;;4969407;28;20097;-73
2022/04/24 03:20:45;;;;;;;0.63;0.63;;;6.40;99.90;;;;;;4957211;28;20047;-70
2022/04/24 03:23:10;;;;;;;0.63;0.63;;;6.30;99.90;;;;;;4965115;28;20043;-71
2022/04/24 03:25:36;;;;;;;0.60;0.60;;;6.40;99.90;;;;;;4967069;28;20051;-72
2022/04/24 03:28:02;;;;;;;0.60;0.60;;;6.40;99.90;;;;;;4957837;28;20068;-72
2022/04/24 03:30:27;;;;;;;0.57;0.57;;;6.30;99.90;;;;;;4968587;28;20054;-73
2022/04/24 03:32:53;;;;;;;0.52;0.52;;;6.30;99.90;;;;;;4983829;28;20042;-71
2022/04/24 03:35:19;;;;;;;0.40;0.40;;;6.30;99.90;;;;;;4960884;28;20044;-72
2022/04/24 03:37:44;;;;;;;0.43;0.43;;;6.20;99.90;;;;;;4968625;28;20134;-72
2022/04/24 03:40:10;;;;;;;0.60;0.60;;;6.20;99.90;;;;;;4966300;28;20399;-72
2022/04/24 03:42:36;;;;;;;0.50;0.50;;;6.20;99.90;;;;;;4961543;28;20043;-73
2022/04/24 03:45:06;;;;;;;0.45;0.45;;;6.30;99.90;;;;;;4970306;28;20051;-74
2022/04/24 03:47:32;;;;;;;0.70;0.70;;;6.30;99.90;;;;;;4942303;29;20055;-72
2022/04/24 03:49:57;;;;;;;0.50;0.50;;;6.20;99.90;;;;;;4964294;28;20108;-74
2022/04/24 03:52:23;;;;;;;0.77;0.77;;;6.20;99.90;;;;;;4967456;28;20082;-70
2022/04/24 03:54:49;;;;;;;0.60;0.60;;;6.10;99.90;;;;;;4969634;28;20043;-73
2022/04/24 03:57:14;;;;;;;0.50;0.50;;;6.10;99.90;;;;;;4972013;28;20045;-72
2022/04/24 03:59:40;;;;;;;0.60;0.60;;;6.10;99.90;;;;;;4965041;28;20051;-72
2022/04/24 04:02:06;;;;;;;0.60;0.60;;;6.00;99.90;;;;;;4965867;28;20047;-72
2022/04/24 04:04:33;;;;;;;0.82;0.82;;;6.00;99.90;;;;;;4965841;28;20039;-73
2022/04/24 04:06:58;;;;;;;0.50;0.50;;;6.00;99.90;;;;;;4958185;28;20055;-71
2022/04/24 04:09:24;;;;;;;0.50;0.50;;;6.00;99.90;;;;;;4968611;28;20896;-73
2022/04/24 04:11:50;;;;;;;1.25;0.93;;;5.90;99.90;;;;;;4968002;28;20481;-73
2022/04/24 04:14:16;;;;;;;0.50;0.50;;;5.90;99.90;;;;;;4951775;28;20047;-72
2022/04/24 04:16:41;;;;;;;0.70;0.70;;;5.90;99.90;;;;;;4944243;28;20070;-73
2022/04/24 04:19:07;;;;;;;0.60;0.60;;;5.90;99.90;;;;;;4950448;28;20043;-73
2022/04/24 04:21:33;;;;;;;0.70;0.70;;;5.90;99.90;;;;;;4964981;28;20031;-71
2022/04/24 04:23:59;;;;;;;0.60;0.60;;;5.90;99.90;;;;;;4983718;28;20124;-71
2022/04/24 04:26:24;;;;;;;0.60;0.60;;;5.80;99.90;;;;;;4968750;28;20042;-71
2022/04/24 04:28:51;;;;;;;1.25;1.17;;;5.90;99.90;;;;;;4967958;28;20043;-71
2022/04/24 04:31:17;;;;;;;0.60;0.60;;;5.90;99.90;;;;;;4956371;28;20089;-72
2022/04/24 04:33:43;;;;;;;0.60;0.60;;;6.00;99.90;;;;;;4961502;28;20043;-73
2022/04/24 04:36:09;;;;;;;0.68;0.68;;;5.90;99.90;;;;;;4964422;28;20050;-73
2022/04/24 04:38:35;;;;;;;0.60;0.60;;;5.90;99.90;;;;;;4968689;28;20047;-73
2022/04/24 04:41:01;;;;;;;;;;;5.90;99.90;;;;;;4953559;28;20082;-73
2022/04/24 04:43:27;;;;;;;0.60;0.60;;;6.00;99.90;;;;;;4963657;28;19918;-73
2022/04/24 04:45:53;;;;;;;;;;;6.10;99.90;;;;;;4956400;28;20047;-73
2022/04/24 04:48:18;;;;;;;0.60;0.60;;;6.20;99.90;;;;;;4952559;28;19918;-72
2022/04/24 04:50:44;;;;;;;0.50;0.50;;;6.20;99.90;;;;;;4965165;28;20130;-71
2022/04/24 04:53:11;;;;;;;0.75;0.75;;;6.30;99.90;;;;;;4968894;28;20054;-74
2022/04/24 04:55:37;;;;;;;0.60;0.60;;;6.20;99.90;;;;;;4968648;28;20053;-74
2022/04/24 04:58:03;;;;;;;0.52;0.52;;;6.20;99.90;;;;;;4965860;28;20039;-74
2022/04/24 05:00:29;;;;;;;0.63;0.63;;;6.30;99.90;;;;;;4952222;28;20039;-71
2022/04/24 05:02:55;;;;;;;0.68;0.68;;;6.30;99.90;;;;;;4969767;28;20104;-72
2022/04/24 05:05:21;;;;;;;0.70;0.70;;;6.30;99.90;;;;;;4968899;28;20050;-72
2022/04/24 05:07:47;;;;;;;0.90;0.90;;;6.30;99.90;;;;;;4966369;28;20047;-72
2022/04/24 05:10:13;;;;;;;0.63;0.63;;;6.30;99.90;;;;;;4958050;28;20058;-72
2022/04/24 05:12:39;;;;;;;0.60;0.60;;;6.20;99.90;;;;;;4949598;28;20660;-73
2022/04/24 05:15:12;;;;;;;0.60;0.60;;;6.30;99.90;;;;;;4956924;28;20038;-72
2022/04/24 05:17:39;;;;;;;0.60;0.60;;;6.30;99.90;;;;;;4944750;28;20035;-73
2022/04/24 05:20:06;;;;;;;0.60;0.60;;;6.30;99.90;;;;;;4963193;28;20102;-72
2022/04/24 05:22:32;;;;;;;0.50;0.50;;;6.30;99.90;;;;;;4978192;28;20035;-72
2022/04/24 05:24:58;;;;;;;1.85;1.17;;;6.40;99.90;;;;;;4964428;28;20488;-72
2022/04/24 05:27:23;;;;;;;0.60;0.60;;;6.40;99.90;;;;;;4964213;28;20404;-71
2022/04/24 05:29:49;;;;;;;0.52;0.52;;;6.50;99.90;;;;;;4978012;28;20152;-72
2022/04/24 05:32:15;;;;;;;0.55;0.55;;;6.50;99.90;;;;;;4956643;28;20073;-71
2022/04/24 05:34:41;;;;;;;0.50;0.50;;;6.60;99.90;;;;;;4966788;28;20047;-73
2022/04/24 05:37:07;;;;;;;0.50;0.50;;;6.60;99.90;;;;;;4967953;28;20050;-73
2022/04/24 05:39:33;;;;;;;0.45;0.45;;;6.60;99.90;;;;;;4923414;28;20058;-72
2022/04/24 05:41:59;;;;;;;0.70;0.70;;;6.60;99.90;;;;;;4966770;28;20134;-72
2022/04/24 05:44:25;;;;;;;0.45;0.45;;;6.80;99.90;;;;;;4968344;28;20043;-71
2022/04/24 05:46:51;;;;;;;0.98;0.98;;;6.80;99.90;;;;;;4959682;28;20051;-73
2022/04/24 05:49:17;;;;;;;0.50;0.50;;;6.90;99.90;;;;;;4945156;29;20074;-73
2022/04/24 05:51:43;;;;;;;;;;;7.00;99.90;;;;;;4946071;28;20046;-72
2022/04/24 05:54:10;;;;;;;0.50;0.50;;;7.10;99.90;;;;;;4961573;28;19972;-72
2022/04/24 05:56:35;;;;;;;0.50;0.50;;;7.20;99.90;;;;;;4968964;28;20046;-73
2022/04/24 05:59:02;;;;;;;0.60;0.60;;;7.30;99.90;;;;;;4961340;28;20421;-72
2022/04/24 06:01:28;;;;;;;0.43;0.43;;;7.50;99.90;;;;;;4962825;28;20046;-72
2022/04/24 06:03:54;;;;;;;0.60;0.60;;;7.60;99.90;;;;;;4968277;28;20118;-74
2022/04/24 06:06:19;;;;;;;0.57;0.57;;;7.60;99.90;;;;;;4974718;28;20153;-71
2022/04/24 06:08:45;;;;;;;0.77;0.77;;;7.80;99.90;;;;;;4966356;28;20120;-72
2022/04/24 06:11:11;;;;;;;0.60;0.60;;;7.90;99.90;;;;;;4962109;28;20047;-72
2022/04/24 06:13:37;;;;;;;0.60;0.60;;;8.00;99.90;;;;;;4959053;28;20043;-72
2022/04/24 06:16:03;;;;;;;0.70;0.70;;;8.10;99.90;;;;;;4935924;28;20043;-72
2022/04/24 06:18:29;;;;;;;0.63;0.63;;;8.10;99.90;;;;;;4967121;28;20047;-72
2022/04/24 06:20:55;;;;;;;0.70;0.70;;;8.20;99.90;;;;;;4931071;28;20084;-71
2022/04/24 06:23:21;;;;;;;0.65;0.65;;;8.30;99.90;;;;;;4967041;28;20125;-73
2022/04/24 06:25:47;;;;;;;0.40;0.40;;;8.40;99.90;;;;;;4963447;28;20047;-70
2022/04/24 06:28:13;;;;;;;0.30;0.30;;;8.40;99.90;;;;;;4966322;28;20046;-74
2022/04/24 06:30:41;;;;;;;0.43;0.43;;;8.50;99.90;;;;;;4951459;28;20053;-72
2022/04/24 06:33:12;;;;;;;0.55;0.55;;;8.50;99.90;;;;;;4951170;28;20185;-71
2022/04/24 06:35:38;;;;;;;0.40;0.40;;;8.60;99.90;;;;;;4950930;28;20067;-71
2022/04/24 06:38:04;;;;;;;0.85;0.85;;;8.70;99.90;;;;;;4967304;28;20077;-73
2022/04/24 06:40:31;;;;;;;0.40;0.40;;;8.80;99.90;;;;;;4951111;28;20613;-71
2022/04/24 06:43:02;;;;;;;0.50;0.50;;;8.90;99.90;;;;;;4953609;28;20404;-71
2022/04/24 06:45:47;;;;;;;0.50;0.50;;;9.00;99.90;;;;;;4968553;28;20056;-71
2022/04/24 06:48:16;;;;;;;0.50;0.50;;;9.00;99.90;;;;;;4967209;28;20051;-70
2022/04/24 06:50:46;;;;;;;0.63;0.63;;;9.10;99.90;;;;;;4963040;28;20070;-74
2022/04/24 06:53:13;;;;;;;0.50;0.50;;;9.20;99.90;;;;;;4947653;28;20484;-73
2022/04/24 06:55:41;;;;;;;0.47;0.47;;;9.40;99.90;;;;;;4951649;28;20055;-73
2022/04/24 06:58:09;;;;;;;0.50;0.50;;;9.50;99.90;;;;;;4967824;28;20054;-70
2022/04/24 07:00:44;;;;;;;0.60;0.60;;;9.60;99.90;;;;;;4954003;28;20047;-74
2022/04/24 07:03:16;;;;;;;0.40;0.40;;;9.60;99.90;;;;;;4980656;28;20387;-73
2022/04/24 07:05:42;;;;;;;0.35;0.35;;;9.70;99.90;;;;;;4970101;28;20054;-73
2022/04/24 07:08:08;;;;;;;;;;;9.90;99.90;;;;;;4954717;28;20059;-70
2022/04/24 07:10:34;;;;;;;0.40;0.40;;;9.90;99.90;;;;;;4949809;29;19925;-73
2022/04/24 07:13:00;;;;;;;0.55;0.55;;;10.00;99.90;;;;;;4962241;28;20047;-72
2022/04/24 07:15:30;;;;;;;0.40;0.40;;;10.10;99.90;;;;;;4936896;29;20480;-72
2022/04/24 07:17:57;;;;;;;0.43;0.43;;;10.20;99.90;;;;;;4961890;28;20083;-73
2022/04/24 07:20:23;;;;;;;0.40;0.40;;;10.30;99.90;;;;;;4941668;28;20073;-72
2022/04/24 07:22:50;;;;;;;;;;;10.30;99.90;;;;;;4970775;28;20383;-70
2022/04/24 07:25:26;;;;;;;0.45;0.45;;;10.40;99.90;;;;;;4964759;28;20436;-71
2022/04/24 07:27:52;;;;;;;0.52;0.52;;;10.50;99.90;;;;;;4952643;28;20045;-73
2022/04/24 07:30:20;;;;;;;0.30;0.30;;;10.60;99.90;;;;;;4938158;28;20069;-72
2022/04/24 07:32:54;;;;;;;0.40;0.40;;;10.70;99.90;;;;;;4969620;28;20055;-74
2022/04/24 07:35:31;;;;;;;0.30;0.30;;;10.80;99.90;;;;;;4970288;28;20126;-72
2022/04/24 07:37:57;;;;;;;0.40;0.40;;;10.90;99.90;;;;;;4959430;28;20047;-72
2022/04/24 07:40:24;;;;;;;;;;;11.00;99.90;;;;;;4952534;28;20039;-70
2022/04/24 07:42:58;;;;;;;0.40;0.40;;;11.00;99.90;;;;;;4959374;28;19919;-72
2022/04/24 07:45:46;;;;;;;0.30;0.30;;;11.00;99.90;;;;;;4964535;28;20138;-72
2022/04/24 07:48:14;;;;;;;0.30;0.30;;;11.10;99.90;;;;;;4965749;28;20062;-72
2022/04/24 07:50:49;;;;;;;0.40;0.40;;;11.10;99.90;;;;;;4941192;28;20051;-71
2022/04/24 07:53:16;;;;;;;0.35;0.35;;;11.20;99.90;;;;;;4950757;28;20070;-71
2022/04/24 07:55:47;;;;;;;0.30;0.30;;;11.30;99.90;;;;;;4947897;29;20039;-72
2022/04/24 07:58:14;;;;;;;0.90;0.90;;;11.40;99.90;;;;;;4968825;28;20046;-71
2022/04/24 08:00:40;;;;;;;0.40;0.40;;;11.50;99.90;;;;;;4952508;28;20046;-72
2022/04/24 08:03:11;;;;;;;0.40;0.40;;;11.60;99.90;;;;;;4997656;28;20504;-71
2022/04/24 08:05:41;;;;;;;0.40;0.40;;;11.60;99.90;;;;;;4939971;28;20446;-73
2022/04/24 08:08:09;;;;;;;0.40;0.40;;;11.70;99.90;;;;;;4985227;28;20058;-73
2022/04/24 08:10:38;;;;;;;0.30;0.30;;;11.80;99.90;;;;;;4968517;28;20157;-73
2022/04/24 08:13:05;;;;;;;0.30;0.30;;;11.90;99.90;;;;;;4957778;28;20062;-72
2022/04/24 08:15:34;;;;;;;0.32;0.32;;;11.80;99.90;;;;;;4950131;28;20046;-72
2022/04/24 08:18:01;;;;;;;0.80;0.80;;;11.80;99.90;;;;;;4969870;28;20357;-76
2022/04/24 08:20:27;;;;;;;0.47;0.47;;;11.80;99.90;;;;;;4968548;28;20054;-74
2022/04/24 08:22:54;;;;;;;;;;;11.90;99.90;;;;;;4953868;28;20073;-71
2022/04/24 08:25:23;;;;;;;0.25;0.25;;;11.90;99.90;;;;;;4952913;28;20511;-72
2022/04/24 08:27:49;;;;;;;0.30;0.30;;;12.00;99.90;;;;;;4941375;28;20123;-73
2022/04/24 08:30:17;;;;;;;0.68;0.68;;;12.10;99.90;;;;;;4974953;28;20139;-72
2022/04/24 08:32:44;;;;;;;0.35;0.35;;;12.30;99.90;;;;;;4968970;28;20456;-73
2022/04/24 08:35:12;;;;;;;0.40;0.40;;;12.40;99.90;;;;;;4970368;28;20429;-74
2022/04/24 08:37:38;;;;;;;0.38;0.38;;;12.50;99.90;;;;;;4952941;28;20047;-72
2022/04/24 08:40:06;;;;;;;1.13;1.02;;;12.60;99.90;;;;;;4964994;28;20038;-72
2022/04/24 08:42:33;;;;;;;0.40;0.40;;;12.70;99.90;;;;;;4963581;28;20125;-73
2022/04/24 08:45:00;;;;;;;0.20;0.20;;;12.70;99.90;;;;;;4960899;28;20047;-72
2022/04/24 08:47:26;;;;;;;0.50;0.50;;;12.80;99.90;;;;;;4969495;28;20046;-71
2022/04/24 08:50:00;;;;;;;0.65;0.65;;;12.80;99.90;;;;;;4968952;28;20452;-73
2022/04/24 08:52:28;;;;;;;0.30;0.30;;;12.80;99.90;;;;;;4968555;28;20049;-71
2022/04/24 08:54:55;;;;;;;0.40;0.40;;;12.70;99.90;;;;;;4959684;28;20471;-72
2022/04/24 08:57:26;;;;;;;0.63;0.30;;;12.60;99.90;;;;;;4962851;28;20043;-73
2022/04/24 08:59:53;;;;;;;0.50;0.50;;;12.60;99.90;;;;;;4955234;28;20047;-73
2022/04/24 09:02:26;;;;;;;0.60;0.60;;;12.70;99.90;;;;;;4958961;28;20112;-71
2022/04/24 09:04:55;;;;;;;4.88;0.70;;;12.80;99.90;;;;;;4951247;28;20038;-72
2022/04/24 09:07:24;;;;;;;0.30;0.30;;;12.90;99.90;;;;;;4950854;28;20054;-74
2022/04/24 09:09:52;;;;;;;0.30;0.30;;;12.90;99.90;;;;;;4952723;28;20133;-73
2022/04/24 09:12:24;;;;;;;0.47;0.47;;;12.90;99.90;;;;;;4951625;28;20043;-72
2022/04/24 09:14:57;;;;;;;0.35;0.35;;;12.90;99.90;;;;;;4949418;28;20062;-72
2022/04/24 09:17:28;;;;;;;0.40;0.40;;;13.00;99.90;;;;;;4968905;28;20042;-71
2022/04/24 09:19:55;;;;;;;0.30;0.30;;;13.00;99.90;;;;;;4940340;28;20035;-73
2022/04/24 09:22:25;;;;;;;0.40;0.40;;;13.00;99.90;;;;;;4966914;28;20046;-74
2022/04/24 09:24:55;;;;;;;0.40;0.40;;;13.10;99.90;;;;;;4963951;28;20576;-74
2022/04/24 09:27:22;;;;;;;0.65;0.65;;;13.10;99.90;;;;;;4950436;28;20039;-73
2022/04/24 09:29:57;;;;;;;0.30;0.30;;;13.30;99.90;;;;;;4952076;28;20078;-72
2022/04/24 09:32:24;;;;;;;0.40;0.40;;;13.30;99.90;;;;;;4965360;28;20136;-72
2022/04/24 09:34:51;;;;;;;0.32;0.32;;;13.30;99.90;;;;;;4946902;28;20043;-74
2022/04/24 09:37:17;;;;;;;0.32;0.32;;;13.40;99.90;;;;;;4939431;28;20100;-74
2022/04/24 09:39:44;;;;;;;0.30;0.30;;;13.50;99.90;;;;;;4968329;28;20321;-71
2022/04/24 09:42:12;;;;;;;0.40;0.40;;;13.50;99.90;;;;;;4981689;28;20078;-72
2022/04/24 09:44:50;;;;;;;0.30;0.30;;;13.50;99.90;;;;;;4967533;28;20075;-71
2022/04/24 09:47:18;;;;;;;0.75;0.75;;;13.60;99.90;;;;;;4952305;28;20074;-75
2022/04/24 09:49:46;;;;;;;0.30;0.30;;;13.50;99.90;;;;;;4939910;29;20043;-72
2022/04/24 09:52:17;;;;;;;0.40;0.40;;;13.70;99.90;;;;;;4962116;28;20059;-72
2022/04/24 09:54:45;;;;;;;0.50;0.50;;;13.80;99.90;;;;;;4953244;28;20051;-70
2022/04/24 09:57:12;;;;;;;0.28;0.28;;;13.90;99.90;;;;;;4964831;28;20043;-72
2022/04/24 09:59:43;;;;;;;0.73;0.73;;;13.90;99.90;;;;;;4967972;28;20058;-74
2022/04/24 10:02:10;;;;;;;0.30;0.30;;;14.00;99.90;;;;;;4968145;28;20057;-71
2022/04/24 10:04:38;;;;;;;0.38;0.38;;;14.00;99.90;;;;;;4967695;28;20058;-72
2022/04/24 10:07:07;;;;;;;0.40;0.40;;;14.10;99.90;;;;;;4967744;28;20061;-73
2022/04/24 10:09:35;;;;;;;0.28;0.28;;;14.30;99.90;;;;;;4968037;28;20061;-73
2022/04/24 10:12:09;;;;;;;0.30;0.30;;;14.40;99.90;;;;;;4966163;28;20053;-73
2022/04/24 10:14:44;;;;;;;0.30;0.30;;;14.50;99.90;;;;;;4967430;28;20155;-73
2022/04/24 10:17:15;;;;;;;0.20;0.20;;;14.60;99.90;;;;;;4967554;28;20391;-71
2022/04/24 10:20:15;;;;;;;0.30;0.30;;;14.50;99.90;;;;;;4959116;28;20070;-71
2022/04/24 10:22:44;;;;;;;0.30;0.30;;;14.60;99.90;;;;;;4967203;28;20118;-73
2022/04/24 10:25:10;;;;;;;0.60;0.60;;;14.70;99.90;;;;;;4964981;28;20107;-71
2022/04/24 10:27:47;;;;;;;5.30;1.25;;;14.80;99.90;;;;;;4962605;28;20051;-74
2022/04/24 10:30:22;;;;;;;0.38;0.38;;;14.80;99.90;;;;;;4967553;28;20051;-74
2022/04/24 10:33:13;;;;;;;0.45;0.45;;;14.60;99.10;;;;;;4962192;28;20609;-74
2022/04/24 10:36:05;;;;;;;0.50;0.50;;;14.60;99.20;;;;;;4960658;28;20066;-72
2022/04/24 10:38:32;;;;;;;0.20;0.20;;;14.70;99.10;;;;;;4959022;28;20051;-72
2022/04/24 10:41:05;;;;;;;0.40;0.40;;;14.70;99.50;;;;;;4970791;28;20061;-70
2022/04/24 10:43:48;;;;;;;2.92;0.47;;;14.70;96.80;;;;;;4969760;28;20114;-74
2022/04/24 10:46:23;;;;;;;0.80;0.80;;;14.70;98.80;;;;;;4964600;28;20057;-71
2022/04/24 10:48:50;;;;;;;0.52;0.52;;;14.70;98.90;;;;;;4981374;28;20046;-72
2022/04/24 10:51:34;;;;;;;0.30;0.30;;;14.80;99.00;;;;;;4964097;28;20047;-75
2022/04/24 10:54:29;;;;;;;0.20;0.20;;;14.90;98.90;;;;;;4953291;28;20549;-73
2022/04/24 10:56:54;;;;;;;0.20;0.20;;;15.10;98.60;;;;;;4958566;28;20038;-74
2022/04/24 10:59:22;;;;;;;0.20;0.20;;;15.20;98.80;;;;;;4962018;28;20137;-72
2022/04/24 11:01:50;;;;;;;0.50;0.50;;;15.30;98.80;;;;;;4970970;28;20419;-73
2022/04/24 11:04:17;;;;;;;0.30;0.30;;;15.20;98.20;;;;;;4954822;28;20587;-73
2022/04/24 11:07:00;;;;;;;0.30;0.30;;;15.20;99.00;;;;;;4952361;28;20050;-72
2022/04/24 11:09:36;;;;;;;0.40;0.40;;;15.20;98.10;;;;;;4960531;28;20058;-75
2022/04/24 11:12:06;;;;;;;0.30;0.30;;;15.20;98.70;;;;;;4970000;28;20045;-70
2022/04/24 11:14:33;;;;;;;0.47;0.47;;;15.10;98.00;;;;;;4971079;28;20442;-73
2022/04/24 11:17:01;;;;;;;0.30;0.30;;;15.00;98.60;;;;;;4969696;28;20035;-72
2022/04/24 11:19:29;;;;;;;0.40;0.40;;;15.00;98.10;;;;;;4970529;28;20039;-74
2022/04/24 11:22:01;;;;;;;0.40;0.40;;;14.90;98.00;;;;;;4968592;28;20199;-70
2022/04/24 11:24:28;;;;;;;0.82;0.82;;;14.80;97.80;;;;;;4958628;28;20050;-72
2022/04/24 11:26:55;;;;;;;0.43;0.43;;;14.80;98.20;;;;;;4982547;28;20087;-72
2022/04/24 11:29:20;;;;;;;0.60;0.43;;;14.80;98.30;;;;;;4971643;28;20045;-71
2022/04/24 11:31:52;;;;;;;0.68;0.68;;;14.80;99.20;;;;;;4969617;28;20043;-74
2022/04/24 11:34:19;;;;;;;0.40;0.40;;;14.90;99.30;;;;;;4969223;28;20070;-74
2022/04/24 11:36:46;;;;;;;0.20;0.20;;;14.90;99.30;;;;;;4969651;28;20513;-75
2022/04/24 11:39:12;;;;;;;0.50;0.50;;;14.90;99.10;;;;;;4969225;28;20053;-72
2022/04/24 11:41:39;;;;;;;1.08;0.65;;;14.90;98.80;;;;;;4960034;28;20476;-73
2022/04/24 11:52:22;;;;;;;0.40;0.40;;;14.80;99.60;;;;;;4968362;28;20495;-71
2022/04/24 11:54:49;;;;;;;0.40;0.40;;;15.00;99.50;;;;;;4952853;28;20093;-72
2022/04/24 11:57:19;;;;;;;0.45;0.45;;;15.00;99.00;;;;;;4964545;28;20046;-72
2022/04/24 11:59:55;;;;;;;0.20;0.20;;;15.00;99.30;;;;;;4973882;28;20053;-71
2022/04/24 12:02:29;;;;;;;0.30;0.30;;;15.00;98.60;;;;;;4953847;28;20057;-74
2022/04/24 12:04:58;;;;;;;0.40;0.40;;;15.10;98.90;;;;;;4969499;28;20046;-71
2022/04/24 12:07:31;;;;;;;0.45;0.45;;;15.00;99.60;;;;;;4957177;28;20076;-72
2022/04/24 12:10:09;;;;;;;0.32;0.32;;;15.20;99.50;;;;;;4957417;28;20061;-72
2022/04/24 12:12:47;;;;;;;0.65;0.65;;;15.50;99.10;;;;;;4957496;28;20047;-73
2022/04/24 12:15:22;;;;;;;0.45;0.45;;;15.50;97.20;;;;;;4969557;28;20051;-72
2022/04/24 12:17:59;;;;;;;0.73;0.70;;;15.30;98.00;;;;;;4958266;28;20046;-73
2022/04/24 12:20:41;;;;;;;0.30;0.30;;;15.20;97.50;;;;;;4965758;28;20124;-74
2022/04/24 12:23:11;;;;;;;0.38;0.38;;;15.10;98.10;;;;;;4950177;28;20043;-71
2022/04/24 12:25:57;;;;;;;0.57;0.57;;;15.10;98.70;;;;;;4965615;28;20120;-71
2022/04/24 12:28:39;;;;;;;0.30;0.30;;;15.10;98.50;;;;;;4967918;28;20441;-71
2022/04/24 12:31:06;;;;;;;0.47;0.47;;;15.10;99.10;;;;;;4959043;28;20061;-72
2022/04/24 12:33:44;;;;;;;0.28;0.28;;;15.20;99.10;;;;;;4969234;28;20369;-70
2022/04/24 12:36:15;;;;;;;0.40;0.40;;;15.40;98.30;;;;;;4952909;28;20480;-72
2022/04/24 12:39:03;;;;;;;0.32;0.32;;;15.60;98.60;;;;;;4963386;28;20444;-72
2022/04/24 12:41:30;;;;;;;0.50;0.50;;;15.70;98.40;;;;;;4958086;28;20459;-73
2022/04/24 12:44:00;;;;;;;0.38;0.38;;;15.60;99.30;;;;;;4962067;28;20192;-73
2022/04/24 12:46:26;;;;;;;0.40;0.40;;;15.70;98.60;;;;;;4958700;28;20047;-73
2022/04/24 12:48:54;;;;;;;0.30;0.30;;;15.80;98.30;;;;;;4947370;28;20077;-73
2022/04/24 12:51:23;;;;;;;0.47;0.47;;;15.60;97.60;;;;;;4951930;28;20047;-72
2022/04/24 12:53:50;;;;;;;0.30;0.30;;;15.50;97.90;;;;;;4967879;28;20047;-71
2022/04/24 12:56:16;;;;;;;0.75;0.75;;;15.30;98.50;;;;;;4950276;28;20050;-69
2022/04/24 12:58:42;;;;;;;;;;;15.40;98.50;;;;;;4982136;28;20047;-72
2022/04/24 13:01:11;;;;;;;0.40;0.40;;;15.60;98.90;;;;;;4952702;28;19918;-71
2022/04/24 13:03:37;;;;;;;0.45;0.43;;;15.70;98.70;;;;;;4984259;28;20054;-71
2022/04/24 13:06:03;;;;;;;1.38;0.63;;;15.80;98.60;;;;;;4960340;28;20051;-71
2022/04/24 13:08:29;;;;;;;;;;;15.80;97.80;;;;;;4962182;28;20415;-72